• Join FlightAware (Why Join?)
  • Login
  • US Flag 
02:46AM EDT


 

Airport Tracker/Info


-or-


 

Live Flight TrackerFlight Track Log ✈ TAM3840 ✈ 20-Oct-2013 ✈ SBTE / THE - SBFZ / FOR

Flight Track Log - Related Links

Times and Time Zones

All times are in EDT time to prevent confusion due to time zone crossing. See the TAM3840 flight status page for this flight to view local times or setup timezone preferences in your user account.

Time Position Orientation Groundspeed Altitude Reporting Facility
EDT Latitude Longitude Course Direction KTS MPH feet Rate Location/Type
11:11AM -5.0560 -42.8240 180° South 105 121  Level FlightAware
11:12AM -5.0770 -42.8220 175° South 150 173 1,000 1,980 Climbing FlightAware
11:12AM -5.0950 -42.8200 174° South 175 201 1,500 1,560 Climbing FlightAware
11:12AM -5.1050 -42.8180 169° South 185 213 1,900 1,500 Climbing FlightAware
11:12AM -5.1110 -42.8150 154° Southeast 195 224 2,000 720 Climbing FlightAware
11:12AM -5.1160 -42.8100 135° Southeast 204 235 2,100 960 Climbing FlightAware
11:13AM -5.1180 -42.8060 117° Southeast 209 241 2,200 900 Climbing FlightAware
11:13AM -5.1200 -42.8010 112° Southeast 221 254 2,300 1,080 Climbing FlightAware
11:13AM -5.1210 -42.7960 101° East 229 264 2,400 2,880 Climbing FlightAware
11:13AM -5.1090 -42.7700 65° Northeast 247 284 3,600 3,000 Climbing FlightAware
11:13AM -5.1010 -42.7650 32° Northeast 242 278 4,100 3,420 Climbing FlightAware
11:14AM -5.0820 -42.7590 17° North 246 283 5,100 3,180 Climbing FlightAware
11:14AM -5.0580 -42.7510 18° North 252 290 6,200 3,000 Climbing FlightAware
11:14AM -5.0320 -42.7390 25° Northeast 253 291 7,400 3,000 Climbing FlightAware
11:14AM -5.0290 -42.7360 45° Northeast 250 288 7,600 3,000 Climbing FlightAware
11:15AM -5.0240 -42.7280 58° Northeast 248 285 8,000 1,920 Climbing FlightAware
11:15AM -5.0140 -42.7060 65° Northeast 270 311 8,500 1,800 Climbing FlightAware
11:15AM -5.0030 -42.6790 68° East 288 331 9,300 2,400 Climbing FlightAware
11:15AM -4.9960 -42.6640 65° Northeast 288 331 9,900 1,980 Climbing FlightAware
11:16AM -4.9760 -42.6180 66° East 322 371 10,900 1,800 Climbing FlightAware
11:17AM -4.9550 -42.5690 67° East 345 397 12,000 2,700 Climbing FlightAware
11:17AM -4.9330 -42.5180 67° East 331 381 14,100 2,640 Climbing FlightAware
11:18AM -4.9100 -42.4650 66° East 349 402 15,200 1,740 Climbing FlightAware
11:18AM -4.8860 -42.4100 66° East 365 420 16,200 1,620 Climbing FlightAware
11:19AM -4.8630 -42.3570 66° East 379 436 17,100 2,040 Climbing FlightAware
11:20AM -4.8370 -42.2980 66° East 378 435 18,600 2,160 Climbing FlightAware
11:20AM -4.8130 -42.2410 67° East 385 443 19,700 1,740 Climbing FlightAware
11:21AM -4.7890 -42.1870 66° East 391 450 20,600 1,740 Climbing FlightAware
11:21AM -4.7630 -42.1270 67° East 397 457 21,700 1,380 Climbing FlightAware
11:22AM -4.7360 -42.0640 67° East 413 475 22,300 1,440 Climbing FlightAware
11:22AM -4.7100 -42.0040 67° East 412 474 23,400 1,860 Climbing FlightAware
11:23AM -4.6830 -41.9430 66° East 410 472 24,500 1,500 Climbing FlightAware
11:24AM -4.6570 -41.8820 67° East 417 480 25,200 1,260 Climbing FlightAware
11:24AM -4.6310 -41.8210 67° East 419 482 26,000 1,140 Climbing FlightAware
11:25AM -4.6030 -41.7580 66° East 428 493 26,600 1,080 Climbing FlightAware
11:25AM -4.5740 -41.6900 67° East 434 499 27,300 900 Climbing FlightAware
11:26AM -4.5440 -41.6230 66° East 447 514 27,700 1,020 Climbing FlightAware
11:27AM -4.5170 -41.5600 67° East 448 516 28,500 1,320 Climbing FlightAware
11:27AM -4.4860 -41.4900 66° East 450 518 29,300 1,500 Climbing FlightAware
11:28AM -4.4600 -41.4300 67° East 443 510 30,200 1,620 Climbing FlightAware
11:28AM -4.4300 -41.3610 66° East 439 505 31,200 1,500 Climbing FlightAware
11:29AM -4.4040 -41.3000 67° East 438 504 32,000 1,320 Climbing FlightAware
11:30AM -4.3720 -41.2280 66° East 437 503 32,800 840 Climbing FlightAware
11:30AM -4.3460 -41.1680 67° East 432 497 33,000 120 Climbing FlightAware
11:31AM -4.3170 -41.1020 66° East 433 498 33,000  Level FlightAware
11:31AM -4.2900 -41.0390 67° East 433 498 33,000  Level FlightAware
11:32AM -4.2620 -40.9750 66° East 433 498 33,000  Level FlightAware
11:32AM -4.2460 -40.9380 67° East 433 498 33,000  Level FlightAware
11:33AM -4.2030 -40.8400 66° East 433 498 33,000  Level FlightAware
11:34AM -4.1800 -40.7870 66° East 433 498 33,000  Level FlightAware
11:34AM -4.1370 -40.6890 66° East 434 499 33,000  Level FlightAware
11:35AM -4.1080 -40.6210 67° East 435 501 33,000  Level FlightAware
11:36AM -4.0800 -40.5580 66° East 435 501 33,000  Level FlightAware
11:36AM -4.0500 -40.4880 67° East 435 501 33,000  Level FlightAware
11:37AM -4.0240 -40.4290 66° East 435 501 33,000  Level FlightAware
11:37AM -3.9950 -40.3640 66° East 435 501 33,000 -300 Level FlightAware
11:38AM -3.9670 -40.2980 67° East 434 499 32,700 -1,140 Descending FlightAware
11:39AM -3.9370 -40.2310 66° East 430 495 31,700 -1,860 Descending FlightAware
11:39AM -3.9120 -40.1720 67° East 424 488 30,600 -2,760 Descending FlightAware
11:40AM -3.8900 -40.1070 71° East 434 499 28,600 -4,080 Descending FlightAware
11:40AM -3.8790 -40.0360 81° East 454 522 25,900 -3,720 Descending FlightAware
11:41AM -3.8680 -39.9660 81° East 443 510 24,300 -2,640 Descending FlightAware
11:41AM -3.8570 -39.8900 82° East 426 490 22,800 -2,460 Descending FlightAware
11:42AM -3.8460 -39.8220 81° East 410 472 21,400 -2,220 Descending FlightAware
11:43AM -3.8370 -39.7620 81° East 404 465 20,300 -2,160 Descending FlightAware
11:43AM -3.8260 -39.6920 81° East 396 456 18,900 -2,220 Descending FlightAware
11:44AM -3.8170 -39.6320 81° East 391 450 17,700 -2,160 Descending FlightAware
11:44AM -3.8070 -39.5670 81° East 384 442 16,400 -2,160 Descending FlightAware
11:45AM -3.7990 -39.5130 82° East 376 433 15,300 -2,040 Descending FlightAware
11:45AM -3.7900 -39.4510 82° East 365 420 14,100 -1,920 Descending FlightAware
11:46AM -3.7810 -39.3910 81° East 357 411 13,000 -1,920 Descending FlightAware
11:47AM -3.7720 -39.3340 81° East 351 404 11,800 -1,800 Descending FlightAware
11:47AM -3.7630 -39.2800 81° East 339 390 10,900 -1,200 Descending FlightAware
11:48AM -3.7560 -39.2320 82° East 317 365 10,500 -720 Descending FlightAware
11:48AM -3.7470 -39.1750 81° East 291 335 10,100 -840 Descending FlightAware
11:49AM -3.7440 -39.1500 83° East 283 326 9,700 -1,200 Descending FlightAware
11:49AM -3.7400 -39.1260 81° East 284 327 9,300 -1,500 Descending FlightAware
11:49AM -3.7370 -39.1030 83° East 281 323 8,800 -1,680 Descending FlightAware
11:50AM -3.7330 -39.0780 81° East 277 319 8,300 -1,500 Descending FlightAware
11:50AM -3.7290 -39.0520 81° East 272 313 7,800 -1,440 Descending FlightAware
11:50AM -3.7260 -39.0350 80° East 269 310 7,500 -1,380 Descending FlightAware
11:51AM -3.7220 -39.0090 81° East 266 306 7,000 -1,500 Descending FlightAware
11:51AM -3.7190 -38.9860 83° East 262 302 6,500 -1,440 Descending FlightAware
11:51AM -3.7150 -38.9620 81° East 260 299 6,100 -1,320 Descending FlightAware
11:52AM -3.7110 -38.9360 81° East 257 296 5,600 -1,080 Descending FlightAware
11:52AM -3.7070 -38.9080 82° East 261 300 5,300 -720 Descending FlightAware
11:52AM -3.7030 -38.8850 80° East 251 289 5,100 -480 Descending FlightAware
11:53AM -3.7000 -38.8630 82° East 230 265 5,000 -180 Descending FlightAware
11:53AM -3.6970 -38.8400 83° East 209 241 5,000 -180 Level FlightAware
11:53AM -3.7000 -38.8200 99° East 201 231 4,900 -480 Descending FlightAware
11:54AM -3.7030 -38.8060 102° East 196 226 4,700 -900 Descending FlightAware
11:54AM -3.7090 -38.7840 105° East 183 211 4,300 -780 Descending FlightAware
11:55AM -3.7130 -38.7680 104° East 173 199 4,100 -480 Descending FlightAware
11:55AM -3.7170 -38.7540 106° East 171 197 4,000 -480 Descending FlightAware
11:55AM -3.7220 -38.7360 106° East 169 194 3,800 -600 Descending FlightAware
11:56AM -3.7260 -38.7210 105° East 169 194 3,600 -900 Descending FlightAware
11:56AM -3.7300 -38.7040 103° East 175 201 3,200 -1,020 Descending FlightAware
11:56AM -3.7350 -38.6880 107° East 171 197 2,900 -900 Descending FlightAware
11:57AM -3.7390 -38.6720 104° East 165 190 2,600 -720 Descending FlightAware
11:57AM -3.7430 -38.6570 105° East 150 173 2,400 -780 Descending FlightAware
11:57AM -3.7460 -38.6450 104° East 138 159 2,100 -840 Descending FlightAware
11:58AM -3.7500 -38.6310 106° East 127 146 1,800 -720 Descending FlightAware
11:58AM -3.7530 -38.6200 105° East 126 145 1,600 -660 Descending FlightAware
11:58AM -3.7550 -38.6100 101° East 128 147 1,400 -600 Descending FlightAware
11:59AM -3.7590 -38.5970 107° East 127 146 1,200 -660 Descending FlightAware
11:59AM -3.7630 -38.5830 106° East 128 147 900 -720 Descending FlightAware
11:59AM -3.7660 -38.5720 105° East 124 143 700 -600 Descending FlightAware
12:00PM -3.7690 -38.5610 105° East 122 140 500 -600 Descending FlightAware
12:00PM -3.7720 -38.5500 105° East 124 143 300 -600 Descending FlightAware
12:00PM -3.7750 -38.5360 102° East 105 121 -720 Descending FlightAware